Dolcinopolis, Brazil
Current Conditions -  °F | °C
As of 11:00 PM on Monday 22 Dec 2014 (Local Time) from SBSR Reporting Station
Overcast Overcast  
Wind Chill: 73°   Ceiling: 7000
Heat Index: 73°   Visibility: 6mi
Dew Point: 70°   Wind: 2mph
Humidity: 88%   Direction: 160°SSE
Pressure: 29.91"   Gusts: NA
Location:  20.12°S, 50.51°W
Report Text: SBSR 230100Z 16002KT 9999 SCT005 SCT030 OVC070 23/21 Q1013
Loading
Personal Weather Stations






























Interactive Weather Map New forecast layout! Learn more

10-Day Weather Forecast

Advertisements
Track Severe Weather on mobile